DLH4EN EDDF-GMMN
Flight info
| Callsign | DLH4EN |
|---|---|
| Flight time | 3h 3m |
| Altitude | 39000 |
| Route | ANEKI2L/18 ANEKI Y163 HERBI Y164 MOPAN DCT LUTIX/N0485F410 DCT BENOT DCT NEMOS DCT NINTU DCT MEBAK DCT REPSI DCT LERGA DCT MINSO DCT NARAK DCT AGN DCT MAQAB DCT TIVLI N869 GALTO UB11 TUSOR |
| Aircraft | A359/H-SDE2E3GHIJ3J4J5LM1ORWXY/LB1D1 |
Departure
| Time | 2026-05-04 18:11 |
|---|---|
| Airport | Frankfurt Main Airport (EDDF) |
Arrival
| Time | 2026-05-04 21:15 |
|---|---|
| Airport | Mohammed V International Airport (GMMN) |
| Time | Latitude | Longitude | Altitude | Speed | Heading |
|---|---|---|---|---|---|
| 2026-05-04 17:23 | 50.04994 | 8.58432 | 368 ft | 0 kts | 340° |
| 2026-05-04 17:55 | 50.04992 | 8.58433 | 365 ft | 2 kts | 340° |
| 2026-05-04 17:56 | 50.04968 | 8.58447 | 368 ft | 4 kts | 339° |
| 2026-05-04 17:56 | 50.04943 | 8.58462 | 365 ft | 4 kts | 339° |
| 2026-05-04 17:56 | 50.04927 | 8.58471 | 370 ft | 4 kts | 327° |
| 2026-05-04 17:56 | 50.04912 | 8.58498 | 366 ft | 4 kts | 275° |
| 2026-05-04 17:57 | 50.04916 | 8.58537 | 366 ft | 4 kts | 245° |
| 2026-05-04 17:57 | 50.04926 | 8.58568 | 367 ft | 0 kts | 250° |
| 2026-05-04 18:01 | 50.04925 | 8.58567 | 366 ft | 2 kts | 250° |
| 2026-05-04 18:01 | 50.04911 | 8.58508 | 367 ft | 8 kts | 250° |
| 2026-05-04 18:02 | 50.04857 | 8.58281 | 368 ft | 14 kts | 250° |
| 2026-05-04 18:02 | 50.04819 | 8.58122 | 368 ft | 17 kts | 249° |
| 2026-05-04 18:02 | 50.04805 | 8.58061 | 368 ft | 0 kts | 249° |
| 2026-05-04 18:02 | 50.04791 | 8.58018 | 372 ft | 12 kts | 239° |
| 2026-05-04 18:03 | 50.04726 | 8.57918 | 372 ft | 14 kts | 222° |
| 2026-05-04 18:03 | 50.04678 | 8.57774 | 369 ft | 16 kts | 250° |
| 2026-05-04 18:03 | 50.04636 | 8.57601 | 368 ft | 18 kts | 249° |
| 2026-05-04 18:03 | 50.04591 | 8.57409 | 367 ft | 20 kts | 249° |
| 2026-05-04 18:04 | 50.04542 | 8.57208 | 371 ft | 15 kts | 249° |
| 2026-05-04 18:04 | 50.04504 | 8.57049 | 366 ft | 17 kts | 250° |
| 2026-05-04 18:04 | 50.04417 | 8.56683 | 366 ft | 20 kts | 250° |
| 2026-05-04 18:05 | 50.04365 | 8.56466 | 371 ft | 23 kts | 250° |
| 2026-05-04 18:05 | 50.04314 | 8.56252 | 368 ft | 22 kts | 250° |
| 2026-05-04 18:05 | 50.04259 | 8.56019 | 369 ft | 24 kts | 249° |
| 2026-05-04 18:05 | 50.04198 | 8.55767 | 363 ft | 25 kts | 249° |
| 2026-05-04 18:06 | 50.04129 | 8.55477 | 359 ft | 29 kts | 250° |
| 2026-05-04 18:06 | 50.04098 | 8.55347 | 363 ft | 9 kts | 249° |
| 2026-05-04 18:06 | 50.04075 | 8.55252 | 366 ft | 10 kts | 248° |
| 2026-05-04 18:07 | 50.04048 | 8.55139 | 367 ft | 15 kts | 250° |
| 2026-05-04 18:07 | 50.03992 | 8.54906 | 361 ft | 31 kts | 250° |
| 2026-05-04 18:07 | 50.03939 | 8.54682 | 363 ft | 21 kts | 249° |
| 2026-05-04 18:07 | 50.03887 | 8.54468 | 363 ft | 21 kts | 249° |
| 2026-05-04 18:08 | 50.03822 | 8.54288 | 357 ft | 20 kts | 237° |
| 2026-05-04 18:08 | 50.03768 | 8.54087 | 353 ft | 21 kts | 249° |
| 2026-05-04 18:08 | 50.03713 | 8.53860 | 359 ft | 23 kts | 250° |
| 2026-05-04 18:08 | 50.03652 | 8.53613 | 353 ft | 25 kts | 248° |
| 2026-05-04 18:09 | 50.03523 | 8.53079 | 349 ft | 18 kts | 249° |
| 2026-05-04 18:09 | 50.03430 | 8.52712 | 350 ft | 11 kts | 246° |
| 2026-05-04 18:10 | 50.03385 | 8.52610 | 349 ft | 12 kts | 208° |
| 2026-05-04 18:10 | 50.03297 | 8.52597 | 351 ft | 14 kts | 179° |
| 2026-05-04 18:10 | 50.03183 | 8.52598 | 347 ft | 25 kts | 179° |
| 2026-05-04 18:10 | 50.02766 | 8.52602 | 348 ft | 96 kts | 180° |
| 2026-05-04 18:11 | 50.01872 | 8.52613 | 341 ft | 158 kts | 179° |
| 2026-05-04 18:11 | 50.00650 | 8.52647 | 744 ft | 177 kts | 179° |
| 2026-05-04 18:11 | 49.99448 | 8.52691 | 1688 ft | 170 kts | 180° |
| 2026-05-04 18:11 | 49.98194 | 8.52746 | 2185 ft | 192 kts | 178° |
| 2026-05-04 18:12 | 49.96783 | 8.52854 | 2635 ft | 216 kts | 177° |
| 2026-05-04 18:12 | 49.95256 | 8.52973 | 3399 ft | 222 kts | 177° |
| 2026-05-04 18:12 | 49.93696 | 8.53088 | 4190 ft | 225 kts | 178° |
| 2026-05-04 18:12 | 49.92119 | 8.53200 | 5059 ft | 225 kts | 178° |
| 2026-05-04 18:13 | 49.90553 | 8.53309 | 5915 ft | 226 kts | 178° |
| 2026-05-04 18:13 | 49.89000 | 8.53416 | 6792 ft | 225 kts | 178° |
| 2026-05-04 18:13 | 49.85823 | 8.53632 | 8470 ft | 231 kts | 179° |
| 2026-05-04 18:14 | 49.84196 | 8.53741 | 9341 ft | 235 kts | 180° |
| 2026-05-04 18:14 | 49.82574 | 8.53850 | 10177 ft | 238 kts | 180° |
| 2026-05-04 18:14 | 49.80905 | 8.53962 | 10968 ft | 241 kts | 180° |
| 2026-05-04 18:15 | 49.77512 | 8.54055 | 12557 ft | 249 kts | 186° |
| 2026-05-04 18:15 | 49.73797 | 8.53579 | 13371 ft | 289 kts | 187° |
| 2026-05-04 18:15 | 49.71735 | 8.53296 | 13756 ft | 308 kts | 187° |
| 2026-05-04 18:16 | 49.69526 | 8.52998 | 14113 ft | 327 kts | 187° |
| 2026-05-04 18:16 | 49.67204 | 8.52689 | 14449 ft | 344 kts | 187° |
| 2026-05-04 18:16 | 49.64770 | 8.52367 | 14951 ft | 354 kts | 186° |
| 2026-05-04 18:17 | 49.59787 | 8.51713 | 16266 ft | 365 kts | 186° |
| 2026-05-04 18:17 | 49.57238 | 8.51379 | 16983 ft | 370 kts | 186° |
| 2026-05-04 18:17 | 49.52056 | 8.50699 | 18400 ft | 378 kts | 186° |
| 2026-05-04 18:18 | 49.49404 | 8.50352 | 19080 ft | 381 kts | 186° |
| 2026-05-04 18:18 | 49.46749 | 8.50004 | 19780 ft | 384 kts | 186° |
| 2026-05-04 18:18 | 49.44074 | 8.49654 | 20502 ft | 387 kts | 186° |
| 2026-05-04 18:18 | 49.41376 | 8.49301 | 21225 ft | 389 kts | 186° |
| 2026-05-04 18:19 | 49.35967 | 8.48595 | 22649 ft | 395 kts | 186° |
| 2026-05-04 18:19 | 49.33213 | 8.48236 | 23343 ft | 398 kts | 186° |
| 2026-05-04 18:19 | 49.30442 | 8.47877 | 23927 ft | 401 kts | 186° |
| 2026-05-04 18:20 | 49.27645 | 8.47518 | 24489 ft | 405 kts | 186° |
| 2026-05-04 18:20 | 49.24820 | 8.47156 | 25046 ft | 408 kts | 186° |
| 2026-05-04 18:20 | 49.21997 | 8.46787 | 25621 ft | 411 kts | 187° |
| 2026-05-04 18:20 | 49.19152 | 8.46414 | 26181 ft | 414 kts | 187° |
| 2026-05-04 18:21 | 49.16241 | 8.46032 | 26754 ft | 416 kts | 187° |
| 2026-05-04 18:21 | 49.13367 | 8.45657 | 27308 ft | 419 kts | 187° |
| 2026-05-04 18:21 | 49.10436 | 8.45275 | 27865 ft | 422 kts | 187° |
| 2026-05-04 18:21 | 49.07523 | 8.44859 | 28394 ft | 424 kts | 189° |
| 2026-05-04 18:22 | 49.04606 | 8.44083 | 28922 ft | 426 kts | 193° |
| 2026-05-04 18:22 | 49.01696 | 8.43155 | 29424 ft | 429 kts | 194° |
| 2026-05-04 18:22 | 48.98798 | 8.42170 | 29943 ft | 431 kts | 194° |
| 2026-05-04 18:22 | 48.95862 | 8.41143 | 30425 ft | 433 kts | 194° |
| 2026-05-04 18:23 | 48.92909 | 8.40100 | 30812 ft | 436 kts | 194° |
| 2026-05-04 18:23 | 48.89935 | 8.39051 | 31201 ft | 438 kts | 194° |
| 2026-05-04 18:23 | 48.86987 | 8.38018 | 31572 ft | 441 kts | 194° |
| 2026-05-04 18:23 | 48.83967 | 8.36966 | 31944 ft | 443 kts | 194° |
| 2026-05-04 18:24 | 48.80987 | 8.35932 | 32305 ft | 445 kts | 194° |
| 2026-05-04 18:24 | 48.77951 | 8.34880 | 32662 ft | 447 kts | 194° |
| 2026-05-04 18:24 | 48.74916 | 8.33798 | 32966 ft | 450 kts | 195° |
| 2026-05-04 18:24 | 48.71853 | 8.32678 | 33303 ft | 452 kts | 195° |
| 2026-05-04 18:25 | 48.68786 | 8.31548 | 33697 ft | 452 kts | 195° |
| 2026-05-04 18:25 | 48.65760 | 8.30433 | 34126 ft | 450 kts | 195° |
| 2026-05-04 18:25 | 48.62715 | 8.29316 | 34500 ft | 450 kts | 195° |
| 2026-05-04 18:25 | 48.59673 | 8.28204 | 34792 ft | 451 kts | 195° |
| 2026-05-04 18:26 | 48.56615 | 8.27091 | 35089 ft | 452 kts | 195° |
| 2026-05-04 18:26 | 48.53559 | 8.25981 | 35385 ft | 452 kts | 195° |
| 2026-05-04 18:26 | 48.50494 | 8.24872 | 35686 ft | 453 kts | 195° |
| 2026-05-04 18:26 | 48.47417 | 8.23757 | 35955 ft | 454 kts | 195° |
| 2026-05-04 18:27 | 48.44341 | 8.22635 | 36225 ft | 455 kts | 195° |
| 2026-05-04 18:27 | 48.41264 | 8.21511 | 36495 ft | 455 kts | 195° |
| 2026-05-04 18:27 | 48.38182 | 8.20384 | 36749 ft | 456 kts | 195° |
| 2026-05-04 18:27 | 48.35128 | 8.19269 | 36985 ft | 457 kts | 195° |
| 2026-05-04 18:28 | 48.32020 | 8.18137 | 37180 ft | 459 kts | 195° |
| 2026-05-04 18:28 | 48.28905 | 8.17005 | 37444 ft | 459 kts | 195° |
| 2026-05-04 18:28 | 48.25845 | 8.15777 | 37683 ft | 459 kts | 199° |
| 2026-05-04 18:28 | 48.22870 | 8.14050 | 37942 ft | 458 kts | 205° |
| 2026-05-04 18:29 | 48.19967 | 8.12047 | 38168 ft | 458 kts | 206° |
| 2026-05-04 18:29 | 48.17082 | 8.09955 | 38423 ft | 459 kts | 207° |
| 2026-05-04 18:29 | 48.14251 | 8.07854 | 38648 ft | 459 kts | 207° |
| 2026-05-04 18:29 | 48.11355 | 8.05691 | 38811 ft | 460 kts | 208° |
| 2026-05-04 18:30 | 48.05650 | 8.01441 | 39192 ft | 460 kts | 207° |
| 2026-05-04 18:30 | 48.02779 | 7.99318 | 39372 ft | 461 kts | 207° |
| 2026-05-04 18:30 | 47.99894 | 7.97193 | 39535 ft | 461 kts | 207° |
| 2026-05-04 18:31 | 47.97012 | 7.95077 | 39704 ft | 461 kts | 207° |
| 2026-05-04 18:31 | 47.94124 | 7.92962 | 39840 ft | 462 kts | 208° |
| 2026-05-04 18:31 | 47.91246 | 7.90858 | 40039 ft | 461 kts | 208° |
| 2026-05-04 18:31 | 47.88391 | 7.88771 | 40183 ft | 461 kts | 208° |
| 2026-05-04 18:32 | 47.85502 | 7.86662 | 40335 ft | 461 kts | 208° |
| 2026-05-04 18:32 | 47.82641 | 7.84576 | 40483 ft | 462 kts | 207° |
| 2026-05-04 18:32 | 47.79760 | 7.82478 | 40612 ft | 462 kts | 207° |
| 2026-05-04 18:32 | 47.76861 | 7.80370 | 40761 ft | 462 kts | 207° |
| 2026-05-04 18:33 | 47.73962 | 7.78263 | 40883 ft | 462 kts | 208° |
| 2026-05-04 18:33 | 47.71176 | 7.76243 | 40995 ft | 463 kts | 208° |
| 2026-05-04 18:33 | 47.68304 | 7.74163 | 41001 ft | 463 kts | 208° |
| 2026-05-04 18:34 | 47.62497 | 7.69963 | 40996 ft | 462 kts | 208° |
| 2026-05-04 18:34 | 47.56714 | 7.65792 | 40992 ft | 462 kts | 207° |
| 2026-05-04 18:35 | 47.50928 | 7.61629 | 40994 ft | 462 kts | 208° |
| 2026-05-04 18:35 | 47.45160 | 7.57487 | 40996 ft | 462 kts | 208° |
| 2026-05-04 18:36 | 47.39403 | 7.53364 | 41000 ft | 462 kts | 208° |
| 2026-05-04 18:36 | 47.33598 | 7.49217 | 41011 ft | 462 kts | 208° |
| 2026-05-04 18:37 | 47.27846 | 7.45117 | 41022 ft | 460 kts | 208° |
| 2026-05-04 18:37 | 47.22076 | 7.41015 | 41020 ft | 459 kts | 207° |
| 2026-05-04 18:38 | 47.16671 | 7.36138 | 41023 ft | 456 kts | 220° |
| 2026-05-04 18:38 | 47.12299 | 7.29444 | 41018 ft | 454 kts | 231° |
| 2026-05-04 18:39 | 47.08332 | 7.22191 | 41019 ft | 454 kts | 232° |
| 2026-05-04 18:39 | 47.04469 | 7.14969 | 41022 ft | 454 kts | 232° |
| 2026-05-04 18:40 | 47.00548 | 7.07717 | 41020 ft | 454 kts | 232° |
| 2026-05-04 18:40 | 46.97994 | 7.03040 | 41023 ft | 454 kts | 232° |
| 2026-05-04 18:41 | 46.94802 | 6.97218 | 41013 ft | 453 kts | 231° |
| 2026-05-04 18:41 | 46.92449 | 6.92937 | 41025 ft | 453 kts | 231° |
| 2026-05-04 18:42 | 46.88511 | 6.85778 | 41022 ft | 453 kts | 231° |
| 2026-05-04 18:42 | 46.84547 | 6.78615 | 41024 ft | 453 kts | 231° |
| 2026-05-04 18:43 | 46.80571 | 6.71452 | 41020 ft | 453 kts | 231° |
| 2026-05-04 18:43 | 46.76618 | 6.64343 | 41023 ft | 453 kts | 231° |
| 2026-05-04 18:44 | 46.72645 | 6.57214 | 41029 ft | 452 kts | 231° |
| 2026-05-04 18:44 | 46.68689 | 6.50131 | 41033 ft | 452 kts | 231° |
| 2026-05-04 18:45 | 46.64709 | 6.43026 | 41030 ft | 452 kts | 231° |
| 2026-05-04 18:45 | 46.60738 | 6.35954 | 41037 ft | 451 kts | 231° |
| 2026-05-04 18:46 | 46.56760 | 6.28890 | 41029 ft | 451 kts | 231° |
| 2026-05-04 18:46 | 46.53448 | 6.23019 | 41044 ft | 451 kts | 231° |
| 2026-05-04 18:47 | 46.48810 | 6.14821 | 41035 ft | 451 kts | 231° |
| 2026-05-04 18:47 | 46.45494 | 6.08975 | 41023 ft | 451 kts | 230° |
| 2026-05-04 18:48 | 46.41501 | 6.01951 | 41037 ft | 451 kts | 230° |
| 2026-05-04 18:48 | 46.37492 | 5.94916 | 41025 ft | 453 kts | 230° |
| 2026-05-04 18:49 | 46.33471 | 5.87881 | 41020 ft | 453 kts | 230° |
| 2026-05-04 18:49 | 46.29450 | 5.80861 | 41017 ft | 453 kts | 230° |
| 2026-05-04 18:50 | 46.25415 | 5.73835 | 41020 ft | 453 kts | 230° |
| 2026-05-04 18:50 | 46.21402 | 5.66866 | 41021 ft | 453 kts | 230° |
| 2026-05-04 18:51 | 46.17364 | 5.59869 | 41014 ft | 453 kts | 230° |
| 2026-05-04 18:51 | 46.13517 | 5.52727 | 41012 ft | 454 kts | 234° |
| 2026-05-04 18:52 | 46.09889 | 5.45265 | 41010 ft | 454 kts | 235° |
| 2026-05-04 18:52 | 46.06299 | 5.37771 | 41002 ft | 454 kts | 235° |
| 2026-05-04 18:53 | 46.02704 | 5.30280 | 40997 ft | 454 kts | 235° |
| 2026-05-04 18:53 | 45.99103 | 5.22814 | 40997 ft | 455 kts | 234° |
| 2026-05-04 18:54 | 45.95488 | 5.15347 | 40994 ft | 455 kts | 234° |
| 2026-05-04 18:54 | 45.91888 | 5.07934 | 40993 ft | 455 kts | 234° |
| 2026-05-04 18:55 | 45.88259 | 5.00478 | 40991 ft | 455 kts | 234° |
| 2026-05-04 18:55 | 45.82806 | 4.89314 | 40994 ft | 456 kts | 234° |
| 2026-05-04 18:56 | 45.79154 | 4.81862 | 40992 ft | 456 kts | 234° |
| 2026-05-04 18:56 | 45.75508 | 4.74440 | 40992 ft | 456 kts | 234° |
| 2026-05-04 18:57 | 45.71847 | 4.67008 | 40976 ft | 456 kts | 234° |
| 2026-05-04 18:57 | 45.68400 | 4.60018 | 40970 ft | 457 kts | 234° |
| 2026-05-04 18:58 | 45.64717 | 4.52591 | 40967 ft | 457 kts | 233° |
| 2026-05-04 18:58 | 45.60908 | 4.45301 | 40966 ft | 457 kts | 232° |
| 2026-05-04 18:59 | 45.57047 | 4.38070 | 40965 ft | 458 kts | 232° |
| 2026-05-04 18:59 | 45.53216 | 4.30866 | 40965 ft | 458 kts | 232° |
| 2026-05-04 19:00 | 45.49354 | 4.23576 | 40961 ft | 458 kts | 232° |
| 2026-05-04 19:00 | 45.45541 | 4.16387 | 40967 ft | 458 kts | 232° |
| 2026-05-04 19:01 | 45.41695 | 4.09149 | 40967 ft | 458 kts | 232° |
| 2026-05-04 19:01 | 45.37847 | 4.01932 | 40966 ft | 458 kts | 232° |
| 2026-05-04 19:02 | 45.33989 | 3.94715 | 40967 ft | 458 kts | 232° |
| 2026-05-04 19:02 | 45.30129 | 3.87512 | 40963 ft | 458 kts | 232° |
| 2026-05-04 19:03 | 45.26267 | 3.80324 | 40966 ft | 457 kts | 232° |
| 2026-05-04 19:03 | 45.22428 | 3.73197 | 40963 ft | 457 kts | 232° |
| 2026-05-04 19:04 | 45.18545 | 3.66006 | 40961 ft | 457 kts | 232° |
| 2026-05-04 19:04 | 45.14677 | 3.58861 | 40955 ft | 457 kts | 232° |
| 2026-05-04 19:05 | 45.10799 | 3.51715 | 40952 ft | 457 kts | 232° |
| 2026-05-04 19:05 | 45.06945 | 3.44631 | 40951 ft | 456 kts | 232° |
| 2026-05-04 19:06 | 45.03067 | 3.37520 | 40953 ft | 457 kts | 232° |
| 2026-05-04 19:06 | 44.99184 | 3.30418 | 40951 ft | 457 kts | 232° |
| 2026-05-04 19:07 | 44.95288 | 3.23310 | 40950 ft | 456 kts | 232° |
| 2026-05-04 19:07 | 44.91398 | 3.16231 | 40946 ft | 456 kts | 232° |
| 2026-05-04 19:08 | 44.87508 | 3.09169 | 40945 ft | 456 kts | 232° |
| 2026-05-04 19:08 | 44.83634 | 3.02152 | 40948 ft | 456 kts | 232° |
| 2026-05-04 19:09 | 44.79734 | 2.95107 | 40944 ft | 456 kts | 232° |
| 2026-05-04 19:09 | 44.75820 | 2.88056 | 40942 ft | 456 kts | 232° |
| 2026-05-04 19:10 | 44.71907 | 2.81021 | 40940 ft | 456 kts | 232° |
| 2026-05-04 19:10 | 44.68012 | 2.74037 | 40936 ft | 456 kts | 231° |
| 2026-05-04 19:11 | 44.64084 | 2.67010 | 40949 ft | 456 kts | 231° |
| 2026-05-04 19:11 | 44.60155 | 2.59999 | 40934 ft | 456 kts | 231° |
| 2026-05-04 19:12 | 44.54276 | 2.49540 | 40937 ft | 456 kts | 231° |
| 2026-05-04 19:13 | 44.50346 | 2.42569 | 40939 ft | 456 kts | 231° |
| 2026-05-04 19:13 | 44.46414 | 2.35613 | 40938 ft | 456 kts | 231° |
| 2026-05-04 19:14 | 44.42476 | 2.28663 | 40951 ft | 456 kts | 231° |
| 2026-05-04 19:14 | 44.38530 | 2.21714 | 40932 ft | 456 kts | 231° |
| 2026-05-04 19:15 | 44.34608 | 2.14823 | 40935 ft | 456 kts | 231° |
| 2026-05-04 19:15 | 44.30661 | 2.07907 | 40933 ft | 456 kts | 231° |
| 2026-05-04 19:16 | 44.26701 | 2.00986 | 40935 ft | 456 kts | 231° |
| 2026-05-04 19:16 | 44.22737 | 1.94071 | 40929 ft | 456 kts | 231° |
| 2026-05-04 19:17 | 44.18763 | 1.87157 | 40937 ft | 456 kts | 231° |
| 2026-05-04 19:17 | 44.14789 | 1.80260 | 40938 ft | 456 kts | 231° |
| 2026-05-04 19:18 | 44.10834 | 1.73413 | 40937 ft | 456 kts | 231° |
| 2026-05-04 19:18 | 44.06848 | 1.66529 | 40943 ft | 456 kts | 231° |
| 2026-05-04 19:19 | 44.02864 | 1.59662 | 40938 ft | 456 kts | 231° |
| 2026-05-04 19:19 | 43.98871 | 1.52799 | 40941 ft | 456 kts | 231° |
| 2026-05-04 19:20 | 43.94884 | 1.45961 | 40951 ft | 456 kts | 231° |
| 2026-05-04 19:20 | 43.90880 | 1.39109 | 40952 ft | 457 kts | 231° |
| 2026-05-04 19:21 | 43.86900 | 1.32315 | 40956 ft | 457 kts | 231° |
| 2026-05-04 19:21 | 43.82890 | 1.25487 | 40956 ft | 456 kts | 231° |
| 2026-05-04 19:22 | 43.78872 | 1.18661 | 40961 ft | 456 kts | 231° |
| 2026-05-04 19:22 | 43.74861 | 1.11862 | 40959 ft | 456 kts | 231° |
| 2026-05-04 19:23 | 43.70841 | 1.05064 | 40961 ft | 457 kts | 231° |
| 2026-05-04 19:23 | 43.66838 | 0.98310 | 40965 ft | 457 kts | 231° |
| 2026-05-04 19:24 | 43.62802 | 0.91517 | 40968 ft | 457 kts | 231° |
| 2026-05-04 19:24 | 43.58766 | 0.84740 | 40972 ft | 456 kts | 231° |
| 2026-05-04 19:25 | 43.54737 | 0.77990 | 40970 ft | 456 kts | 231° |
| 2026-05-04 19:25 | 43.50703 | 0.71247 | 40980 ft | 456 kts | 231° |
| 2026-05-04 19:26 | 43.46666 | 0.64516 | 40978 ft | 456 kts | 231° |
| 2026-05-04 19:26 | 43.42640 | 0.57818 | 40970 ft | 456 kts | 231° |
| 2026-05-04 19:27 | 43.38594 | 0.51102 | 40990 ft | 455 kts | 231° |
| 2026-05-04 19:27 | 43.34524 | 0.44362 | 40994 ft | 455 kts | 231° |
| 2026-05-04 19:28 | 43.30499 | 0.37711 | 41010 ft | 455 kts | 231° |
| 2026-05-04 19:28 | 43.26446 | 0.31031 | 40999 ft | 456 kts | 230° |
| 2026-05-04 19:29 | 43.22375 | 0.24335 | 40986 ft | 456 kts | 230° |
| 2026-05-04 19:29 | 43.18335 | 0.17705 | 40997 ft | 455 kts | 230° |
| 2026-05-04 19:30 | 43.14268 | 0.11047 | 41004 ft | 455 kts | 230° |
| 2026-05-04 19:30 | 43.10202 | 0.04406 | 40997 ft | 455 kts | 230° |
| 2026-05-04 19:31 | 43.06133 | -0.02226 | 41026 ft | 455 kts | 230° |
| 2026-05-04 19:31 | 43.02050 | -0.08865 | 41002 ft | 456 kts | 230° |
| 2026-05-04 19:32 | 42.97962 | -0.15498 | 41008 ft | 456 kts | 230° |
| 2026-05-04 19:32 | 42.93891 | -0.22087 | 41001 ft | 456 kts | 230° |
| 2026-05-04 19:33 | 42.89798 | -0.28699 | 41002 ft | 456 kts | 230° |
| 2026-05-04 19:33 | 42.85699 | -0.35305 | 40989 ft | 456 kts | 230° |
| 2026-05-04 19:34 | 42.81324 | -0.41554 | 40990 ft | 457 kts | 220° |
| 2026-05-04 19:34 | 42.75956 | -0.46127 | 40989 ft | 460 kts | 207° |
| 2026-05-04 19:35 | 42.70025 | -0.49471 | 40991 ft | 463 kts | 203° |
| 2026-05-04 19:35 | 42.63978 | -0.52490 | 40979 ft | 462 kts | 202° |
| 2026-05-04 19:36 | 42.58963 | -0.55024 | 40964 ft | 462 kts | 203° |
| 2026-05-04 19:36 | 42.52941 | -0.58140 | 40957 ft | 462 kts | 204° |
| 2026-05-04 19:37 | 42.46945 | -0.61277 | 40961 ft | 462 kts | 204° |
| 2026-05-04 19:37 | 42.40938 | -0.64418 | 40959 ft | 462 kts | 204° |
| 2026-05-04 19:38 | 42.34935 | -0.67544 | 40957 ft | 462 kts | 204° |
| 2026-05-04 19:38 | 42.28976 | -0.70640 | 40958 ft | 462 kts | 204° |
| 2026-05-04 19:39 | 42.22978 | -0.73750 | 40959 ft | 462 kts | 204° |
| 2026-05-04 19:39 | 42.16980 | -0.76852 | 40968 ft | 462 kts | 204° |
| 2026-05-04 19:40 | 42.10983 | -0.79948 | 40962 ft | 461 kts | 204° |
| 2026-05-04 19:40 | 42.04979 | -0.83042 | 40960 ft | 461 kts | 204° |
| 2026-05-04 19:41 | 41.98976 | -0.86134 | 40959 ft | 461 kts | 204° |
| 2026-05-04 19:41 | 41.92979 | -0.89212 | 40963 ft | 461 kts | 204° |
| 2026-05-04 19:42 | 41.86987 | -0.92277 | 40968 ft | 461 kts | 204° |
| 2026-05-04 19:42 | 41.80982 | -0.95344 | 40987 ft | 461 kts | 204° |
| 2026-05-04 19:43 | 41.75026 | -0.98382 | 40991 ft | 461 kts | 204° |
| 2026-05-04 19:43 | 41.69038 | -1.01431 | 40994 ft | 460 kts | 204° |
| 2026-05-04 19:44 | 41.63390 | -1.05342 | 40997 ft | 455 kts | 215° |
| 2026-05-04 19:44 | 41.58129 | -1.10035 | 40991 ft | 454 kts | 217° |
| 2026-05-04 19:45 | 41.52929 | -1.14848 | 41002 ft | 454 kts | 217° |
| 2026-05-04 19:45 | 41.47735 | -1.19646 | 40984 ft | 454 kts | 217° |
| 2026-05-04 19:46 | 41.42546 | -1.24403 | 40993 ft | 455 kts | 217° |
| 2026-05-04 19:46 | 41.37319 | -1.29172 | 40994 ft | 454 kts | 217° |
| 2026-05-04 19:47 | 41.32133 | -1.33893 | 40986 ft | 454 kts | 217° |
| 2026-05-04 19:47 | 41.26922 | -1.38627 | 40992 ft | 453 kts | 217° |
| 2026-05-04 19:48 | 41.21709 | -1.43361 | 40987 ft | 453 kts | 217° |
| 2026-05-04 19:48 | 41.16507 | -1.48085 | 40989 ft | 453 kts | 217° |
| 2026-05-04 19:49 | 41.11289 | -1.52803 | 40988 ft | 453 kts | 217° |
| 2026-05-04 19:49 | 41.06070 | -1.57508 | 40990 ft | 454 kts | 217° |
| 2026-05-04 19:50 | 41.00873 | -1.62186 | 40986 ft | 454 kts | 217° |
| 2026-05-04 19:50 | 40.95641 | -1.66889 | 40990 ft | 454 kts | 217° |
| 2026-05-04 19:51 | 40.90411 | -1.71580 | 40991 ft | 454 kts | 217° |
| 2026-05-04 19:51 | 40.85188 | -1.76256 | 40994 ft | 453 kts | 217° |
| 2026-05-04 19:52 | 40.80010 | -1.80882 | 40993 ft | 452 kts | 217° |
| 2026-05-04 19:52 | 40.74799 | -1.85536 | 40995 ft | 452 kts | 217° |
| 2026-05-04 19:53 | 40.69586 | -1.90173 | 40995 ft | 452 kts | 217° |
| 2026-05-04 19:53 | 40.64372 | -1.94797 | 40997 ft | 451 kts | 217° |
| 2026-05-04 19:54 | 40.59161 | -1.99413 | 40990 ft | 450 kts | 217° |
| 2026-05-04 19:54 | 40.53997 | -2.03980 | 40990 ft | 450 kts | 217° |
| 2026-05-04 19:55 | 40.48783 | -2.08589 | 40990 ft | 450 kts | 217° |
| 2026-05-04 19:55 | 40.43607 | -2.13150 | 40980 ft | 450 kts | 217° |
| 2026-05-04 19:56 | 40.38400 | -2.17730 | 40984 ft | 450 kts | 217° |
| 2026-05-04 19:56 | 40.33200 | -2.22293 | 40980 ft | 449 kts | 217° |
| 2026-05-04 19:57 | 40.27995 | -2.26849 | 40985 ft | 450 kts | 217° |
| 2026-05-04 19:57 | 40.22808 | -2.31384 | 40954 ft | 450 kts | 217° |
| 2026-05-04 19:58 | 40.17592 | -2.35938 | 40981 ft | 449 kts | 217° |
| 2026-05-04 19:58 | 40.12397 | -2.40465 | 40978 ft | 449 kts | 217° |
| 2026-05-04 19:59 | 40.07231 | -2.44959 | 41001 ft | 449 kts | 217° |
| 2026-05-04 19:59 | 40.02029 | -2.49475 | 40984 ft | 448 kts | 217° |
| 2026-05-04 20:00 | 39.96815 | -2.53993 | 40986 ft | 448 kts | 217° |
| 2026-05-04 20:00 | 39.91642 | -2.58467 | 40987 ft | 447 kts | 217° |
| 2026-05-04 20:01 | 39.86448 | -2.62951 | 40992 ft | 447 kts | 217° |
| 2026-05-04 20:01 | 39.81279 | -2.67405 | 40993 ft | 448 kts | 217° |
| 2026-05-04 20:02 | 39.76068 | -2.71888 | 40976 ft | 449 kts | 218° |
| 2026-05-04 20:02 | 39.70883 | -2.76340 | 40987 ft | 448 kts | 218° |
| 2026-05-04 20:03 | 39.65686 | -2.80794 | 40988 ft | 447 kts | 218° |
| 2026-05-04 20:03 | 39.60482 | -2.85248 | 40987 ft | 447 kts | 217° |
| 2026-05-04 20:04 | 39.55275 | -2.89696 | 40988 ft | 447 kts | 217° |
| 2026-05-04 20:04 | 39.50102 | -2.94107 | 40988 ft | 447 kts | 218° |
| 2026-05-04 20:05 | 39.44900 | -2.98534 | 40987 ft | 447 kts | 218° |
| 2026-05-04 20:05 | 39.39576 | -3.02717 | 40987 ft | 451 kts | 210° |
| 2026-05-04 20:06 | 39.33734 | -3.05850 | 40996 ft | 455 kts | 206° |
| 2026-05-04 20:06 | 39.27831 | -3.08719 | 40990 ft | 456 kts | 206° |
| 2026-05-04 20:07 | 39.21877 | -3.11569 | 40996 ft | 455 kts | 206° |
| 2026-05-04 20:07 | 39.15944 | -3.14427 | 40996 ft | 455 kts | 206° |
| 2026-05-04 20:08 | 39.10013 | -3.17295 | 40999 ft | 455 kts | 206° |
| 2026-05-04 20:08 | 39.04116 | -3.20146 | 40995 ft | 454 kts | 206° |
| 2026-05-04 20:09 | 38.98192 | -3.23007 | 41002 ft | 454 kts | 206° |
| 2026-05-04 20:09 | 38.92275 | -3.25859 | 41002 ft | 454 kts | 206° |
| 2026-05-04 20:10 | 38.86349 | -3.28702 | 41001 ft | 454 kts | 206° |
| 2026-05-04 20:10 | 38.80463 | -3.31522 | 40994 ft | 453 kts | 206° |
| 2026-05-04 20:11 | 38.74556 | -3.34350 | 40998 ft | 452 kts | 206° |
| 2026-05-04 20:11 | 38.68652 | -3.37171 | 41015 ft | 452 kts | 206° |
| 2026-05-04 20:12 | 38.62751 | -3.39987 | 41015 ft | 452 kts | 206° |
| 2026-05-04 20:12 | 38.56888 | -3.42780 | 41004 ft | 452 kts | 206° |
| 2026-05-04 20:13 | 38.50984 | -3.45586 | 41005 ft | 452 kts | 206° |
| 2026-05-04 20:13 | 38.45071 | -3.48393 | 41004 ft | 452 kts | 206° |
| 2026-05-04 20:14 | 38.39207 | -3.51171 | 41003 ft | 452 kts | 206° |
| 2026-05-04 20:14 | 38.33300 | -3.53965 | 40999 ft | 452 kts | 206° |
| 2026-05-04 20:15 | 38.27419 | -3.56741 | 40996 ft | 452 kts | 206° |
| 2026-05-04 20:15 | 38.21506 | -3.59527 | 40996 ft | 452 kts | 206° |
| 2026-05-04 20:16 | 38.15598 | -3.62306 | 40993 ft | 452 kts | 206° |
| 2026-05-04 20:16 | 38.09795 | -3.65325 | 40988 ft | 448 kts | 210° |
| 2026-05-04 20:17 | 38.04173 | -3.68624 | 40990 ft | 447 kts | 211° |
| 2026-05-04 20:17 | 37.98518 | -3.71922 | 40993 ft | 447 kts | 210° |
| 2026-05-04 20:18 | 37.92830 | -3.75163 | 40999 ft | 448 kts | 210° |
| 2026-05-04 20:18 | 37.87176 | -3.78348 | 40988 ft | 447 kts | 210° |
| 2026-05-04 20:19 | 37.81480 | -3.81546 | 41005 ft | 447 kts | 210° |
| 2026-05-04 20:19 | 37.75778 | -3.84746 | 41001 ft | 448 kts | 210° |
| 2026-05-04 20:20 | 37.70109 | -3.87923 | 41005 ft | 448 kts | 210° |
| 2026-05-04 20:20 | 37.64396 | -3.91120 | 40985 ft | 448 kts | 210° |
| 2026-05-04 20:21 | 37.58689 | -3.94308 | 41007 ft | 447 kts | 211° |
| 2026-05-04 20:21 | 37.50179 | -3.99054 | 41030 ft | 447 kts | 210° |
| 2026-05-04 20:22 | 37.44479 | -4.02226 | 41036 ft | 447 kts | 210° |
| 2026-05-04 20:22 | 37.38807 | -4.05375 | 41014 ft | 447 kts | 211° |
| 2026-05-04 20:23 | 37.33115 | -4.08530 | 41026 ft | 446 kts | 211° |
| 2026-05-04 20:23 | 37.27421 | -4.11684 | 41024 ft | 446 kts | 211° |
| 2026-05-04 20:24 | 37.22689 | -4.14299 | 41024 ft | 446 kts | 211° |
| 2026-05-04 20:24 | 37.16068 | -4.17952 | 40997 ft | 446 kts | 211° |
| 2026-05-04 20:25 | 37.11336 | -4.20559 | 41021 ft | 447 kts | 211° |
| 2026-05-04 20:25 | 37.05638 | -4.23694 | 41016 ft | 447 kts | 211° |
| 2026-05-04 20:26 | 36.99926 | -4.26834 | 41020 ft | 448 kts | 211° |
| 2026-05-04 20:26 | 36.94241 | -4.29954 | 41003 ft | 447 kts | 211° |
| 2026-05-04 20:27 | 36.88532 | -4.33076 | 40993 ft | 447 kts | 211° |
| 2026-05-04 20:27 | 36.82847 | -4.36212 | 40999 ft | 446 kts | 213° |
| 2026-05-04 20:28 | 36.77550 | -4.40034 | 40992 ft | 440 kts | 218° |
| 2026-05-04 20:28 | 36.72397 | -4.44098 | 40994 ft | 439 kts | 219° |
| 2026-05-04 20:29 | 36.67263 | -4.48201 | 40993 ft | 439 kts | 219° |
| 2026-05-04 20:29 | 36.62093 | -4.52319 | 40990 ft | 439 kts | 219° |
| 2026-05-04 20:30 | 36.56944 | -4.56401 | 40994 ft | 440 kts | 219° |
| 2026-05-04 20:30 | 36.51781 | -4.60483 | 41011 ft | 441 kts | 219° |
| 2026-05-04 20:31 | 36.46595 | -4.64575 | 41010 ft | 441 kts | 219° |
| 2026-05-04 20:31 | 36.41404 | -4.68664 | 41011 ft | 442 kts | 219° |
| 2026-05-04 20:32 | 36.36214 | -4.72747 | 41020 ft | 441 kts | 219° |
| 2026-05-04 20:32 | 36.31023 | -4.76824 | 41027 ft | 442 kts | 219° |
| 2026-05-04 20:33 | 36.25862 | -4.80871 | 41029 ft | 441 kts | 219° |
| 2026-05-04 20:33 | 36.20665 | -4.84940 | 41038 ft | 441 kts | 218° |
| 2026-05-04 20:34 | 36.15465 | -4.89005 | 41046 ft | 442 kts | 218° |
| 2026-05-04 20:34 | 36.10276 | -4.93092 | 41051 ft | 441 kts | 219° |
| 2026-05-04 20:35 | 36.05117 | -4.97182 | 41055 ft | 440 kts | 219° |
| 2026-05-04 20:35 | 35.99995 | -5.01235 | 41053 ft | 440 kts | 219° |
| 2026-05-04 20:36 | 35.94830 | -5.05311 | 41056 ft | 440 kts | 219° |
| 2026-05-04 20:36 | 35.89668 | -5.09375 | 41056 ft | 440 kts | 219° |
| 2026-05-04 20:37 | 35.84536 | -5.13410 | 41054 ft | 440 kts | 219° |
| 2026-05-04 20:37 | 35.79347 | -5.17418 | 41049 ft | 441 kts | 218° |
| 2026-05-04 20:38 | 35.74078 | -5.21306 | 41045 ft | 441 kts | 217° |
| 2026-05-04 20:38 | 35.68804 | -5.25183 | 41048 ft | 441 kts | 217° |
| 2026-05-04 20:39 | 35.63541 | -5.29073 | 41018 ft | 441 kts | 217° |
| 2026-05-04 20:39 | 35.58292 | -5.32987 | 41045 ft | 440 kts | 219° |
| 2026-05-04 20:40 | 35.53334 | -5.37301 | 41043 ft | 436 kts | 223° |
| 2026-05-04 20:40 | 35.48517 | -5.41758 | 41051 ft | 436 kts | 223° |
| 2026-05-04 20:41 | 35.43632 | -5.46192 | 41047 ft | 437 kts | 222° |
| 2026-05-04 20:41 | 35.38709 | -5.50570 | 41064 ft | 437 kts | 221° |
| 2026-05-04 20:42 | 35.33778 | -5.54921 | 41056 ft | 436 kts | 221° |
| 2026-05-04 20:42 | 35.28871 | -5.59246 | 41068 ft | 436 kts | 221° |
| 2026-05-04 20:43 | 35.23946 | -5.63584 | 41069 ft | 435 kts | 221° |
| 2026-05-04 20:43 | 35.19030 | -5.67908 | 41077 ft | 435 kts | 221° |
| 2026-05-04 20:44 | 35.14109 | -5.72232 | 41084 ft | 436 kts | 221° |
| 2026-05-04 20:44 | 35.09218 | -5.76521 | 41082 ft | 435 kts | 221° |
| 2026-05-04 20:45 | 35.04304 | -5.80824 | 41086 ft | 434 kts | 221° |
| 2026-05-04 20:45 | 34.99398 | -5.85114 | 41083 ft | 434 kts | 221° |
| 2026-05-04 20:46 | 34.94490 | -5.89400 | 41083 ft | 434 kts | 221° |
| 2026-05-04 20:46 | 34.89583 | -5.93683 | 41082 ft | 433 kts | 221° |
| 2026-05-04 20:47 | 34.84922 | -5.98292 | 41082 ft | 431 kts | 225° |
| 2026-05-04 20:47 | 34.80306 | -6.02945 | 41084 ft | 430 kts | 224° |
| 2026-05-04 20:48 | 34.75702 | -6.07531 | 41083 ft | 430 kts | 224° |
| 2026-05-04 20:48 | 34.71061 | -6.12130 | 41083 ft | 430 kts | 224° |
| 2026-05-04 20:49 | 34.66422 | -6.16716 | 41083 ft | 430 kts | 224° |
| 2026-05-04 20:49 | 34.61781 | -6.21294 | 41083 ft | 430 kts | 224° |
| 2026-05-04 20:50 | 34.57134 | -6.25871 | 41044 ft | 430 kts | 224° |
| 2026-05-04 20:50 | 34.52474 | -6.30429 | 41079 ft | 430 kts | 223° |
| 2026-05-04 20:51 | 34.47188 | -6.34010 | 41083 ft | 444 kts | 206° |
| 2026-05-04 20:51 | 34.41272 | -6.36181 | 41086 ft | 448 kts | 203° |
| 2026-05-04 20:52 | 34.35273 | -6.38260 | 41058 ft | 447 kts | 203° |
| 2026-05-04 20:52 | 34.32304 | -6.39292 | 40525 ft | 444 kts | 204° |
| 2026-05-04 20:52 | 34.29326 | -6.40334 | 39706 ft | 447 kts | 204° |
| 2026-05-04 20:53 | 34.26336 | -6.41382 | 38965 ft | 449 kts | 204° |
| 2026-05-04 20:53 | 34.23329 | -6.42434 | 38149 ft | 449 kts | 204° |
| 2026-05-04 20:53 | 34.20315 | -6.43491 | 37226 ft | 452 kts | 203° |
| 2026-05-04 20:53 | 34.17278 | -6.44556 | 36240 ft | 457 kts | 203° |
| 2026-05-04 20:54 | 34.14200 | -6.45633 | 35258 ft | 461 kts | 202° |
| 2026-05-04 20:54 | 34.11141 | -6.46702 | 34311 ft | 465 kts | 201° |
| 2026-05-04 20:54 | 34.08015 | -6.47792 | 33266 ft | 469 kts | 201° |
| 2026-05-04 20:54 | 34.04861 | -6.48890 | 32201 ft | 473 kts | 201° |
| 2026-05-04 20:55 | 34.01682 | -6.49997 | 31119 ft | 476 kts | 201° |
| 2026-05-04 20:55 | 33.98538 | -6.51272 | 30024 ft | 476 kts | 208° |
| 2026-05-04 20:55 | 33.95729 | -6.53293 | 29131 ft | 466 kts | 221° |
| 2026-05-04 20:55 | 33.93337 | -6.55870 | 28435 ft | 457 kts | 227° |
| 2026-05-04 20:56 | 33.91075 | -6.58520 | 27772 ft | 450 kts | 227° |
| 2026-05-04 20:56 | 33.88853 | -6.61142 | 27118 ft | 445 kts | 227° |
| 2026-05-04 20:56 | 33.87192 | -6.63099 | 26631 ft | 441 kts | 227° |
| 2026-05-04 20:56 | 33.85181 | -6.65463 | 26034 ft | 437 kts | 227° |
| 2026-05-04 20:57 | 33.83014 | -6.68005 | 25410 ft | 433 kts | 227° |
| 2026-05-04 20:57 | 33.81003 | -6.70360 | 24821 ft | 429 kts | 227° |
| 2026-05-04 20:57 | 33.79241 | -6.72421 | 24300 ft | 426 kts | 227° |
| 2026-05-04 20:57 | 33.77142 | -6.74875 | 23676 ft | 422 kts | 227° |
| 2026-05-04 20:58 | 33.75029 | -6.77342 | 22968 ft | 417 kts | 227° |
| 2026-05-04 20:58 | 33.72963 | -6.79753 | 22337 ft | 412 kts | 227° |
| 2026-05-04 20:58 | 33.70920 | -6.82135 | 21726 ft | 406 kts | 227° |
| 2026-05-04 20:58 | 33.68898 | -6.84492 | 21102 ft | 401 kts | 227° |
| 2026-05-04 20:59 | 33.66903 | -6.86811 | 20475 ft | 397 kts | 226° |
| 2026-05-04 20:59 | 33.64769 | -6.88907 | 19838 ft | 397 kts | 216° |
| 2026-05-04 20:59 | 33.62276 | -6.90356 | 19164 ft | 400 kts | 204° |
| 2026-05-04 20:59 | 33.59641 | -6.91437 | 18467 ft | 400 kts | 201° |
| 2026-05-04 21:00 | 33.57029 | -6.92450 | 17716 ft | 398 kts | 201° |
| 2026-05-04 21:00 | 33.54401 | -6.93471 | 17006 ft | 395 kts | 201° |
| 2026-05-04 21:00 | 33.51797 | -6.94488 | 16310 ft | 392 kts | 201° |
| 2026-05-04 21:00 | 33.49214 | -6.95503 | 15616 ft | 389 kts | 201° |
| 2026-05-04 21:01 | 33.46648 | -6.96512 | 14917 ft | 387 kts | 201° |
| 2026-05-04 21:01 | 33.44103 | -6.97515 | 14217 ft | 385 kts | 201° |
| 2026-05-04 21:01 | 33.41564 | -6.98516 | 13495 ft | 382 kts | 200° |
| 2026-05-04 21:01 | 33.39045 | -6.99509 | 12777 ft | 379 kts | 200° |
| 2026-05-04 21:02 | 33.36557 | -7.00488 | 12091 ft | 375 kts | 200° |
| 2026-05-04 21:02 | 33.34083 | -7.01461 | 11398 ft | 371 kts | 200° |
| 2026-05-04 21:02 | 33.31646 | -7.02420 | 10814 ft | 365 kts | 200° |
| 2026-05-04 21:02 | 33.29314 | -7.03337 | 10676 ft | 347 kts | 200° |
| 2026-05-04 21:03 | 33.27079 | -7.04212 | 10542 ft | 330 kts | 200° |
| 2026-05-04 21:03 | 33.24952 | -7.05046 | 10422 ft | 313 kts | 200° |
| 2026-05-04 21:03 | 33.22931 | -7.05839 | 10292 ft | 298 kts | 200° |
| 2026-05-04 21:03 | 33.21008 | -7.06613 | 10170 ft | 285 kts | 203° |
| 2026-05-04 21:04 | 33.19342 | -7.07731 | 10053 ft | 269 kts | 222° |
| 2026-05-04 21:04 | 33.18168 | -7.09479 | 9785 ft | 274 kts | 244° |
| 2026-05-04 21:04 | 33.17597 | -7.11644 | 9415 ft | 274 kts | 258° |
| 2026-05-04 21:04 | 33.17256 | -7.13885 | 9062 ft | 274 kts | 260° |
| 2026-05-04 21:05 | 33.16933 | -7.16130 | 8704 ft | 274 kts | 259° |
| 2026-05-04 21:05 | 33.16603 | -7.18366 | 8345 ft | 273 kts | 259° |
| 2026-05-04 21:05 | 33.16266 | -7.20602 | 7977 ft | 273 kts | 259° |
| 2026-05-04 21:05 | 33.15924 | -7.22830 | 7623 ft | 272 kts | 259° |
| 2026-05-04 21:06 | 33.15581 | -7.25044 | 7259 ft | 271 kts | 259° |
| 2026-05-04 21:06 | 33.15330 | -7.27258 | 6905 ft | 268 kts | 268° |
| 2026-05-04 21:06 | 33.15411 | -7.29462 | 6550 ft | 266 kts | 275° |
| 2026-05-04 21:06 | 33.15591 | -7.31665 | 6177 ft | 266 kts | 276° |
| 2026-05-04 21:07 | 33.15777 | -7.33821 | 5914 ft | 260 kts | 276° |
| 2026-05-04 21:07 | 33.15954 | -7.35915 | 5744 ft | 245 kts | 276° |
| 2026-05-04 21:07 | 33.16117 | -7.37870 | 5492 ft | 229 kts | 276° |
| 2026-05-04 21:07 | 33.16267 | -7.39694 | 5288 ft | 213 kts | 276° |
| 2026-05-04 21:08 | 33.16404 | -7.41384 | 5138 ft | 194 kts | 276° |
| 2026-05-04 21:08 | 33.16529 | -7.42928 | 4992 ft | 180 kts | 276° |
| 2026-05-04 21:08 | 33.16645 | -7.44357 | 4834 ft | 166 kts | 276° |
| 2026-05-04 21:08 | 33.16753 | -7.45693 | 4732 ft | 165 kts | 276° |
| 2026-05-04 21:09 | 33.16875 | -7.47187 | 4708 ft | 192 kts | 276° |
| 2026-05-04 21:09 | 33.17005 | -7.48795 | 4658 ft | 196 kts | 276° |
| 2026-05-04 21:09 | 33.17136 | -7.50407 | 4604 ft | 193 kts | 277° |
| 2026-05-04 21:09 | 33.17585 | -7.51868 | 4328 ft | 185 kts | 313° |
| 2026-05-04 21:10 | 33.18538 | -7.52797 | 4092 ft | 172 kts | 328° |
| 2026-05-04 21:10 | 33.19600 | -7.53328 | 3844 ft | 164 kts | 346° |
| 2026-05-04 21:10 | 33.20667 | -7.53683 | 3606 ft | 154 kts | 345° |
| 2026-05-04 21:10 | 33.21662 | -7.54038 | 3407 ft | 144 kts | 346° |
| 2026-05-04 21:11 | 33.22597 | -7.54362 | 3216 ft | 137 kts | 347° |
| 2026-05-04 21:11 | 33.23500 | -7.54672 | 3041 ft | 133 kts | 347° |
| 2026-05-04 21:11 | 33.24378 | -7.54974 | 2862 ft | 130 kts | 348° |
| 2026-05-04 21:11 | 33.25250 | -7.55273 | 2702 ft | 130 kts | 348° |
| 2026-05-04 21:12 | 33.26124 | -7.55572 | 2518 ft | 130 kts | 348° |
| 2026-05-04 21:12 | 33.26989 | -7.55868 | 2352 ft | 128 kts | 348° |
| 2026-05-04 21:12 | 33.27849 | -7.56162 | 2171 ft | 128 kts | 348° |
| 2026-05-04 21:12 | 33.28696 | -7.56453 | 1996 ft | 129 kts | 348° |
| 2026-05-04 21:13 | 33.29562 | -7.56744 | 1845 ft | 130 kts | 349° |
| 2026-05-04 21:13 | 33.30430 | -7.57039 | 1671 ft | 129 kts | 347° |
| 2026-05-04 21:13 | 33.31286 | -7.57311 | 1480 ft | 126 kts | 348° |
| 2026-05-04 21:13 | 33.32121 | -7.57595 | 1344 ft | 125 kts | 343° |
| 2026-05-04 21:14 | 33.32955 | -7.57919 | 1155 ft | 124 kts | 346° |
| 2026-05-04 21:14 | 33.33514 | -7.58106 | 1039 ft | 126 kts | 347° |
| 2026-05-04 21:14 | 33.34361 | -7.58397 | 834 ft | 125 kts | 345° |
| 2026-05-04 21:14 | 33.35195 | -7.58687 | 686 ft | 125 kts | 347° |
| 2026-05-04 21:15 | 33.35984 | -7.58947 | 657 ft | 105 kts | 344° |
| 2026-05-04 21:15 | 33.36437 | -7.59102 | 657 ft | 26 kts | 345° |
| 2026-05-04 21:15 | 33.36593 | -7.59153 | 656 ft | 24 kts | 341° |
| 2026-05-04 21:15 | 33.36803 | -7.59229 | 656 ft | 39 kts | 343° |
| 2026-05-04 21:16 | 33.37113 | -7.59334 | 659 ft | 52 kts | 343° |
| 2026-05-04 21:16 | 33.37448 | -7.59452 | 660 ft | 48 kts | 344° |
| 2026-05-04 21:16 | 33.37676 | -7.59522 | 658 ft | 12 kts | 8° |
| 2026-05-04 21:16 | 33.37744 | -7.59390 | 658 ft | 26 kts | 74° |
| 2026-05-04 21:17 | 33.37752 | -7.59356 | 657 ft | 0 kts | 73° |
| 2026-05-04 21:23 | 33.37768 | -7.59290 | 659 ft | 26 kts | 75° |
| 2026-05-04 21:23 | 33.37828 | -7.59044 | 656 ft | 31 kts | 73° |
| 2026-05-04 21:24 | 33.37877 | -7.58844 | 659 ft | 25 kts | 73° |
| 2026-05-04 21:24 | 33.37899 | -7.58644 | 659 ft | 24 kts | 116° |
| 2026-05-04 21:24 | 33.37786 | -7.58486 | 659 ft | 26 kts | 150° |
| 2026-05-04 21:24 | 33.37610 | -7.58436 | 659 ft | 27 kts | 171° |
| 2026-05-04 21:25 | 33.37542 | -7.58416 | 659 ft | 10 kts | 165° |
| 2026-05-04 21:25 | 33.37535 | -7.58413 | 659 ft | 0 kts | 165° |
| 2026-05-04 21:25 | 33.37526 | -7.58410 | 659 ft | 7 kts | 163° |
| 2026-05-04 21:26 | 33.37516 | -7.58377 | 659 ft | 5 kts | 88° |
| 2026-05-04 21:26 | 33.37524 | -7.58341 | 659 ft | 0 kts | 70° |
| 2026-05-04 21:26 | 33.37530 | -7.58325 | 659 ft | 3 kts | 67° |
| 2026-05-04 21:26 | 33.37531 | -7.58320 | 659 ft | 0 kts | 66° |